Rio Blanco — D5BO9 — position and weather

sailwx.info

Track history (hours):
 
Tides and Currents Weather Stations Pressure Air Temp Water Temp Dewpoint Dewpoint Depression Visibility Wind Speed Wind Dir Waves Ship Positions

Rio Blanco

Last reported at 2014-Jul-23 02:33 UTC. Time now 2014-Jul-23 03:15 UTC.
Position N 53°39' E 009°31'.

Length 286 m; draft 10.1 m.

Type: Ship (hazmat cat A). MMSI: 636092395.

Date/timePositionNaut miles runAvg speedWind from/ knotsBaromVisibWave heightAir tempDewpointWater temp
2014-Jul-23 02:33N 53°39' E 009°31'1211.6
2014-Jul-23 01:33N 53°50' E 009°22'1010.0
2014-Jul-23 00:33N 53°53' E 009°05'1212.4
2014-Jul-22 23:34N 53°52' E 008°44'1212.2
2014-Jul-22 22:33N 53°59' E 008°28'1413.6
2014-Jul-22 21:33N 53°59' E 008°05'1312.8
2014-Jul-22 20:33N 53°57' E 007°43'1515.2
2014-Jul-22 19:33N 53°53' E 007°18'1616.2
2014-Jul-22 18:33N 53°49' E 006°51'1716.8
2014-Jul-22 17:33N 53°46' E 006°24'1716.9
2014-Jul-22 16:33N 53°40' E 005°57'1717.2
2014-Jul-22 15:33N 53°35' E 005°29'1717.1
2014-Jul-22 14:33N 53°30' E 005°02'1918.5
2014-Jul-22 13:33N 53°18' E 004°38'2120.8
2014-Jul-22 12:33N 52°59' E 004°22'2120.7
2014-Jul-22 11:33N 52°42' E 004°04'2020.5
2014-Jul-22 10:33N 52°27' E 003°40'2120.5
2014-Jul-22 09:33N 52°12' E 003°16'2019.8
2014-Jul-22 08:33N 51°59' E 002°54'1919.3
2014-Jul-22 07:33N 51°44' E 002°34'1919.0
2014-Jul-22 06:34N 51°29' E 002°14'1717.4
2014-Jul-22 05:34N 51°14' E 002°02'1817.9
2014-Jul-22 04:33N 51°03' E 001°39'1817.9
2014-Jul-22 03:33N 50°47' E 001°25'1818.3
2014-Jul-22 02:33N 50°33' E 001°06'1919.1
2014-Jul-22 01:33N 50°24' E 000°40'1919.1
2014-Jul-22 00:33N 50°19' E 000°11'2718.7
2014-Jul-21 23:06N 50°12' W 000°30'1018.3
2014-Jul-21 22:33N 50°09' W 000°44'1817.8
2014-Jul-21 21:33N 50°06' W 001°12'1818.0
2014-Jul-21 20:33N 49°60' W 001°38'518.2
2014-Jul-21 20:18N 49°58' W 001°45'1418.5
2014-Jul-21 19:33N 49°56' W 002°06'78116.3
2014-Jul-19 19:33N 38°07' W 009°41'1514.8
2014-Jul-19 18:33N 37°53' W 009°36'1515.1
2014-Jul-19 17:33N 37°38' W 009°32'1514.9
2014-Jul-19 16:33N 37°24' W 009°26'3515.1
2014-Jul-19 14:13N 36°50' W 009°14'1614.4
2014-Jul-19 13:08N 36°43' W 008°57'914.9
2014-Jul-19 12:33N 36°40' W 008°47'1614.9
2014-Jul-19 11:28N 36°35' W 008°28'1415.3
2014-Jul-19 10:33N 36°30' W 008°11'1815.5
2014-Jul-19 09:25N 36°24' W 007°51'41015.3
2014-Jul-18 06:33N 36°54' E 000°39'2215.3
2014-Jul-18 05:05N 36°60' E 001°06'2615.2
2014-Jul-18 03:23N 37°07' E 001°38'1315.6
2014-Jul-18 02:33N 37°11' E 001°53'2015.6
2014-Jul-18 01:17N 37°17' E 002°17'1115.5
2014-Jul-18 00:32N 37°20' E 002°31'1515.5
2014-Jul-17 23:33N 37°24' E 002°49'1515.5
2014-Jul-17 22:33N 37°27' E 003°08'1515.4
2014-Jul-17 21:33N 37°32' E 003°27'1515.5
2014-Jul-17 20:33N 37°36' E 003°46'1615.7
2014-Jul-17 19:33N 37°41' E 004°05'1616.0
2014-Jul-17 18:33N 37°45' E 004°24'1616.2
2014-Jul-17 17:33N 37°50' E 004°44'1616.0
2014-Jul-17 16:33N 37°54' E 005°03'1615.9
2014-Jul-17 15:33N 37°59' E 005°23'1616.0
2014-Jul-17 14:33N 38°03' E 005°42'1616.0
2014-Jul-17 13:33N 38°08' E 006°01'2015.6
2014-Jul-17 12:16N 38°13' E 006°26'6515.5
2014-Jul-17 08:06N 38°31' E 007°45'2415.3
2014-Jul-17 06:32N 38°38' E 008°15'3214.9
2014-Jul-17 04:22N 38°48' E 008°54'1315.8
2014-Jul-17 03:33N 38°56' E 009°07'1414.3
2014-Jul-17 02:33N 39°11' E 009°06'3 2.1
2014-Jul-17 01:12N 39°13' E 009°04'0 0.0
2014-Jul-17 00:30N 39°13' E 009°04'0 0.0
2014-Jul-16 23:23N 39°13' E 009°04'0 0.0
2014-Jul-16 22:30N 39°13' E 009°04'0 0.0
2014-Jul-16 21:30N 39°13' E 009°04'0 0.0
2014-Jul-16 20:24N 39°13' E 009°04'0 0.0
2014-Jul-16 16:30N 39°13' E 009°04'0 0.0
2014-Jul-16 11:11N 39°13' E 009°04'0 0.0
2014-Jul-16 10:12N 39°13' E 009°04'0 0.0
2014-Jul-16 07:33N 39°13' E 009°04'5 5.4
2014-Jul-16 06:33N 39°08' E 009°06'1313.3
2014-Jul-16 05:33N 38°59' E 009°19'1414.4
2014-Jul-16 04:33N 38°52' E 009°35'1514.5
2014-Jul-16 03:32N 38°44' E 009°51'1514.7
2014-Jul-16 02:31N 38°36' E 010°07'1515.1
2014-Jul-16 01:33N 38°27' E 010°22'1715.4
2014-Jul-16 00:27N 38°18' E 010°40'3115.3
2014-Jul-15 22:27N 38°02' E 011°14'13214.7
2014-Jul-15 13:31N 37°01' E 013°41'1414.1
2014-Jul-15 12:33N 36°53' E 013°55'1414.2
2014-Jul-15 11:33N 36°45' E 014°09'8 7.6
2014-Jul-15 10:33N 36°41' E 014°17'0 0.5
2014-Jul-15 09:33N 36°41' E 014°16'0 0.4
2014-Jul-15 08:33N 36°41' E 014°16'  
Track history (hours):
 
Tides and Currents Weather Stations Pressure Air Temp Water Temp Dewpoint Dewpoint Depression Visibility Wind Speed Wind Dir Waves Ship Positions

Rio Blanco

Last reported at 2014-Jul-23 02:33 UTC. Time now 2014-Jul-23 03:15 UTC.
Position N 53°39' E 009°31'.

Length 286 m; draft 10.1 m.

Type: Ship (hazmat cat A). MMSI: 636092395.

Date/timePositionNaut miles runAvg speedWind from/ knotsBaromVisibWave heightAir tempDewpointWater temp
2014-Jul-23 02:33N 53°39' E 009°31'1211.6
2014-Jul-23 01:33N 53°50' E 009°22'1010.0
2014-Jul-23 00:33N 53°53' E 009°05'1212.4
2014-Jul-22 23:34N 53°52' E 008°44'1212.2
2014-Jul-22 22:33N 53°59' E 008°28'1413.6
2014-Jul-22 21:33N 53°59' E 008°05'1312.8
2014-Jul-22 20:33N 53°57' E 007°43'1515.2
2014-Jul-22 19:33N 53°53' E 007°18'1616.2
2014-Jul-22 18:33N 53°49' E 006°51'1716.8
2014-Jul-22 17:33N 53°46' E 006°24'1716.9
2014-Jul-22 16:33N 53°40' E 005°57'1717.2
2014-Jul-22 15:33N 53°35' E 005°29'1717.1
2014-Jul-22 14:33N 53°30' E 005°02'1918.5
2014-Jul-22 13:33N 53°18' E 004°38'2120.8
2014-Jul-22 12:33N 52°59' E 004°22'2120.7
2014-Jul-22 11:33N 52°42' E 004°04'2020.5
2014-Jul-22 10:33N 52°27' E 003°40'2120.5
2014-Jul-22 09:33N 52°12' E 003°16'2019.8
2014-Jul-22 08:33N 51°59' E 002°54'1919.3
2014-Jul-22 07:33N 51°44' E 002°34'1919.0
2014-Jul-22 06:34N 51°29' E 002°14'1717.4
2014-Jul-22 05:34N 51°14' E 002°02'1817.9
2014-Jul-22 04:33N 51°03' E 001°39'1817.9
2014-Jul-22 03:33N 50°47' E 001°25'1818.3
2014-Jul-22 02:33N 50°33' E 001°06'1919.1
2014-Jul-22 01:33N 50°24' E 000°40'1919.1
2014-Jul-22 00:33N 50°19' E 000°11'2718.7
2014-Jul-21 23:06N 50°12' W 000°30'1018.3
2014-Jul-21 22:33N 50°09' W 000°44'1817.8
2014-Jul-21 21:33N 50°06' W 001°12'1818.0
2014-Jul-21 20:33N 49°60' W 001°38'518.2
2014-Jul-21 20:18N 49°58' W 001°45'1418.5
2014-Jul-21 19:33N 49°56' W 002°06'78116.3
2014-Jul-19 19:33N 38°07' W 009°41'1514.8
2014-Jul-19 18:33N 37°53' W 009°36'1515.1
2014-Jul-19 17:33N 37°38' W 009°32'1514.9
2014-Jul-19 16:33N 37°24' W 009°26'3515.1
2014-Jul-19 14:13N 36°50' W 009°14'1614.4
2014-Jul-19 13:08N 36°43' W 008°57'914.9
2014-Jul-19 12:33N 36°40' W 008°47'1614.9
2014-Jul-19 11:28N 36°35' W 008°28'1415.3
2014-Jul-19 10:33N 36°30' W 008°11'1815.5
2014-Jul-19 09:25N 36°24' W 007°51'41015.3
2014-Jul-18 06:33N 36°54' E 000°39'2215.3
2014-Jul-18 05:05N 36°60' E 001°06'2615.2
2014-Jul-18 03:23N 37°07' E 001°38'1315.6
2014-Jul-18 02:33N 37°11' E 001°53'2015.6
2014-Jul-18 01:17N 37°17' E 002°17'1115.5
2014-Jul-18 00:32N 37°20' E 002°31'1515.5
2014-Jul-17 23:33N 37°24' E 002°49'1515.5
2014-Jul-17 22:33N 37°27' E 003°08'1515.4
2014-Jul-17 21:33N 37°32' E 003°27'1515.5
2014-Jul-17 20:33N 37°36' E 003°46'1615.7
2014-Jul-17 19:33N 37°41' E 004°05'1616.0
2014-Jul-17 18:33N 37°45' E 004°24'1616.2
2014-Jul-17 17:33N 37°50' E 004°44'1616.0
2014-Jul-17 16:33N 37°54' E 005°03'1615.9
2014-Jul-17 15:33N 37°59' E 005°23'1616.0
2014-Jul-17 14:33N 38°03' E 005°42'1616.0
2014-Jul-17 13:33N 38°08' E 006°01'2015.6
2014-Jul-17 12:16N 38°13' E 006°26'6515.5
2014-Jul-17 08:06N 38°31' E 007°45'2415.3
2014-Jul-17 06:32N 38°38' E 008°15'3214.9
2014-Jul-17 04:22N 38°48' E 008°54'1315.8
2014-Jul-17 03:33N 38°56' E 009°07'1414.3
2014-Jul-17 02:33N 39°11' E 009°06'3 2.1
2014-Jul-17 01:12N 39°13' E 009°04'0 0.0
2014-Jul-17 00:30N 39°13' E 009°04'0 0.0
2014-Jul-16 23:23N 39°13' E 009°04'0 0.0
2014-Jul-16 22:30N 39°13' E 009°04'0 0.0
2014-Jul-16 21:30N 39°13' E 009°04'0 0.0
2014-Jul-16 20:24N 39°13' E 009°04'0 0.0
2014-Jul-16 16:30N 39°13' E 009°04'0 0.0
2014-Jul-16 11:11N 39°13' E 009°04'0 0.0
2014-Jul-16 10:12N 39°13' E 009°04'0 0.0
2014-Jul-16 07:33N 39°13' E 009°04'5 5.4
2014-Jul-16 06:33N 39°08' E 009°06'1313.3
2014-Jul-16 05:33N 38°59' E 009°19'1414.4
2014-Jul-16 04:33N 38°52' E 009°35'1514.5
2014-Jul-16 03:32N 38°44' E 009°51'1514.7
2014-Jul-16 02:31N 38°36' E 010°07'1515.1
2014-Jul-16 01:33N 38°27' E 010°22'1715.4
2014-Jul-16 00:27N 38°18' E 010°40'3115.3
2014-Jul-15 22:27N 38°02' E 011°14'13214.7
2014-Jul-15 13:31N 37°01' E 013°41'1414.1
2014-Jul-15 12:33N 36°53' E 013°55'1414.2
2014-Jul-15 11:33N 36°45' E 014°09'8 7.6
2014-Jul-15 10:33N 36°41' E 014°17'0 0.5
2014-Jul-15 09:33N 36°41' E 014°16'0 0.4
2014-Jul-15 08:33N 36°41' E 014°16'  

Dump ship's entire track history